Time;durP1;ratioP1;P1;durP2;ratioP2;P2;SDS_P1;SDS_P2;PMS_P1;PMS_P2;Temp;Humidity;BMP_temperature;BMP_pressure;BME280_temperature;BME280_humidity;BME280_pressure;Samples;Min_cycle;Max_cycle;Signal;HPM_P1;HPM_P2
2022/08/10 00:02:38;;;;;;;6.47;3.50;;;;;;;;;;5036802;28;21013;-82
2022/08/10 00:05:05;;;;;;;4.25;3.85;;;;;;;;;;5048079;28;20437;-83
2022/08/10 00:07:31;;;;;;;4.30;3.80;;;;;;;;;;5045506;28;20418;-81
2022/08/10 00:09:57;;;;;;;4.90;3.95;;;;;;;;;;5046299;28;20429;-81
2022/08/10 00:12:25;;;;;;;5.37;3.60;;;;;;;;;;5044609;28;20429;-84
2022/08/10 00:14:52;;;;;;;4.88;4.00;;;;;;;;;;5043647;28;20433;-81
2022/08/10 00:17:18;;;;;;;3.88;3.55;;;;;;;;;;5046418;28;20510;-83
2022/08/10 00:19:44;;;;;;;4.13;3.53;;;;;;;;;;5046582;28;20436;-82
2022/08/10 00:22:12;;;;;;;4.47;3.53;;;;;;;;;;5046302;28;20417;-82
2022/08/10 00:24:38;;;;;;;4.40;3.78;;;;;;;;;;5046979;28;20417;-82
2022/08/10 00:27:05;;;;;;;3.80;3.50;;;;;;;;;;5046547;28;20930;-84
2022/08/10 00:29:33;;;;;;;4.35;3.63;;;;;;;;;;5045541;28;20423;-82
2022/08/10 00:31:59;;;;;;;3.72;3.42;;;;;;;;;;5045119;28;20423;-82
2022/08/10 00:34:25;;;;;;;4.30;3.90;;;;;;;;;;5047692;28;20942;-80
2022/08/10 00:36:52;;;;;;;4.35;3.75;;;;;;;;;;5045123;28;20431;-81
2022/08/10 00:39:18;;;;;;;5.68;4.15;;;;;;;;;;5044960;28;20432;-81
2022/08/10 00:41:45;;;;;;;4.00;3.70;;;;;;;;;;5044497;28;20422;-82
2022/08/10 00:44:11;;;;;;;4.10;3.70;;;;;;;;;;5045287;28;20441;-82
2022/08/10 00:46:39;;;;;;;3.95;3.65;;;;;;;;;;5044420;28;20429;-81
2022/08/10 00:49:05;;;;;;;4.38;3.97;;;;;;;;;;5047342;28;20429;-81
2022/08/10 00:51:31;;;;;;;4.30;3.80;;;;;;;;;;5046514;28;20425;-82
2022/08/10 00:53:58;;;;;;;4.20;3.90;;;;;;;;;;5045607;28;20433;-82
2022/08/10 00:56:24;;;;;;;4.75;3.80;;;;;;;;;;5042231;28;20920;-81
2022/08/10 00:58:51;;;;;;;4.28;3.88;;;;;;;;;;5044886;28;20933;-81
2022/08/10 01:01:17;;;;;;;4.22;3.83;;;;;;;;;;5046439;28;20419;-82
2022/08/10 01:03:45;;;;;;;4.88;3.75;;;;;;;;;;5046337;28;20431;-81
2022/08/10 01:06:15;;;;;;;4.27;3.87;;;;;;;;;;5043582;28;20419;-83
2022/08/10 01:08:46;;;;;;;4.28;3.88;;;;;;;;;;5046517;28;20430;-82
2022/08/10 01:11:15;;;;;;;3.90;3.60;;;;;;;;;;5046358;28;20425;-81
2022/08/10 01:13:46;;;;;;;4.50;4.10;;;;;;;;;;5048250;28;20446;-82
2022/08/10 01:16:15;;;;;;;3.95;3.55;;;;;;;;;;5045841;28;20422;-82
2022/08/10 01:18:44;;;;;;;5.40;4.13;;;;;;;;;;5046806;28;20433;-85
2022/08/10 01:21:22;;;;;;;4.32;3.58;;;;;;;;;;5048691;28;20775;-82
2022/08/10 01:24:00;;;;;;;5.15;4.00;;;;;;;;;;5045772;28;20442;-81
2022/08/10 01:26:44;;;;;;;3.92;3.63;;;;;;;;;;5043274;28;20455;-82
2022/08/10 01:29:28;;;;;;;4.20;3.80;;;;;;;;;;5046754;28;20998;-81
2022/08/10 01:32:01;;;;;;;4.90;3.50;;;;;;;;;;5043206;28;20428;-82
2022/08/10 01:34:32;;;;;;;4.43;4.03;;;;;;;;;;5045600;28;20415;-81
2022/08/10 01:37:01;;;;;;;3.95;3.63;;;;;;;;;;5044382;28;20518;-83
2022/08/10 01:39:30;;;;;;;4.68;3.50;;;;;;;;;;5045973;28;20440;-83
2022/08/10 01:41:58;;;;;;;3.95;3.65;;;;;;;;;;5045269;28;20786;-81
2022/08/10 01:44:28;;;;;;;4.70;3.70;;;;;;;;;;5046296;28;20946;-81
2022/08/10 01:48:27;;;;;;;4.47;3.70;;;;;;;;;;5046672;28;20914;-80
2022/08/10 01:49:47;;;;;;;3.70;3.30;;;;;;;;;;5045895;28;20813;-83
2022/08/10 01:52:15;;;;;;;4.57;3.80;;;;;;;;;;5044884;28;20430;-82
2022/08/10 01:54:42;;;;;;;4.30;4.00;;;;;;;;;;5044453;28;20941;-81
2022/08/10 01:57:10;;;;;;;4.28;3.72;;;;;;;;;;5044832;28;20430;-83
2022/08/10 01:59:39;;;;;;;4.10;3.70;;;;;;;;;;5042288;28;20429;-85
2022/08/10 02:02:06;;;;;;;4.67;3.60;;;;;;;;;;5045822;28;20685;-83
2022/08/10 02:04:34;;;;;;;6.90;3.97;;;;;;;;;;5043971;28;20453;-83
2022/08/10 02:07:02;;;;;;;4.00;3.70;;;;;;;;;;5046054;28;20440;-83
2022/08/10 02:09:30;;;;;;;4.40;3.90;;;;;;;;;;5043191;28;20433;-83
2022/08/10 02:11:59;;;;;;;4.18;3.78;;;;;;;;;;5043930;28;20421;-83
2022/08/10 02:14:27;;;;;;;5.17;4.00;;;;;;;;;;5045760;28;20429;-83
2022/08/10 02:16:53;;;;;;;5.95;4.22;;;;;;;;;;5046812;28;20472;-81
2022/08/10 02:19:23;;;;;;;6.17;4.50;;;;;;;;;;5044508;28;20465;-80
2022/08/10 02:21:51;;;;;;;5.00;4.10;;;;;;;;;;5045847;28;20421;-81
2022/08/10 02:24:20;;;;;;;4.30;4.00;;;;;;;;;;5045843;28;20469;-83
2022/08/10 02:26:48;;;;;;;4.40;4.00;;;;;;;;;;5047846;28;20432;-81
2022/08/10 02:29:16;;;;;;;5.00;3.90;;;;;;;;;;5050578;28;20941;-80
2022/08/10 02:31:43;;;;;;;4.72;4.32;;;;;;;;;;5049459;28;20934;-81
2022/08/10 02:34:11;;;;;;;4.60;4.20;;;;;;;;;;5049615;28;20952;-81
2022/08/10 02:36:41;;;;;;;5.80;4.40;;;;;;;;;;5049100;28;20971;-81
2022/08/10 02:39:08;;;;;;;4.60;4.00;;;;;;;;;;5049439;28;20476;-82
2022/08/10 02:41:39;;;;;;;4.20;3.80;;;;;;;;;;5048851;28;20425;-82
2022/08/10 02:44:09;;;;;;;4.95;4.50;;;;;;;;;;5051761;28;20437;-81
2022/08/10 02:46:39;;;;;;;5.50;4.03;;;;;;;;;;5048540;28;20425;-83
2022/08/10 02:49:06;;;;;;;4.30;3.90;;;;;;;;;;5049237;28;20444;-83
2022/08/10 02:51:36;;;;;;;4.50;3.70;;;;;;;;;;5048665;28;20414;-82
2022/08/10 02:54:05;;;;;;;4.95;4.05;;;;;;;;;;5048630;28;20445;-83
2022/08/10 02:56:34;;;;;;;3.80;3.50;;;;;;;;;;5048731;28;20427;-83
2022/08/10 02:59:05;;;;;;;4.80;4.00;;;;;;;;;;5049480;28;20927;-82
2022/08/10 03:01:33;;;;;;;4.05;3.60;;;;;;;;;;5047968;28;20417;-84
2022/08/10 03:04:01;;;;;;;4.40;4.00;;;;;;;;;;5050337;28;20448;-83
2022/08/10 03:06:32;;;;;;;5.50;4.28;;;;;;;;;;5049096;28;20450;-83
2022/08/10 03:08:59;;;;;;;5.30;4.10;;;;;;;;;;5051805;28;20434;-84
2022/08/10 03:11:28;;;;;;;4.50;4.10;;;;;;;;;;5031751;28;20421;-81
2022/08/10 03:13:56;;;;;;;8.25;4.20;;;;;;;;;;5047813;28;20918;-81
2022/08/10 03:16:25;;;;;;;4.80;3.90;;;;;;;;;;5047463;28;20421;-83
2022/08/10 03:18:52;;;;;;;4.40;4.00;;;;;;;;;;5048544;28;20425;-81
2022/08/10 03:21:20;;;;;;;4.72;4.20;;;;;;;;;;5047660;28;20766;-81
2022/08/10 03:23:47;;;;;;;4.30;4.00;;;;;;;;;;5048756;28;20413;-81
2022/08/10 03:26:15;;;;;;;4.40;4.00;;;;;;;;;;5047213;28;20428;-82
2022/08/10 03:28:41;;;;;;;4.70;4.30;;;;;;;;;;5047566;28;20520;-82
2022/08/10 03:31:08;;;;;;;4.70;4.30;;;;;;;;;;5050549;28;20748;-82
2022/08/10 03:33:37;;;;;;;4.40;4.00;;;;;;;;;;5049063;28;20441;-81
2022/08/10 03:36:05;;;;;;;4.88;4.20;;;;;;;;;;5048178;28;20427;-82
2022/08/10 03:38:31;;;;;;;4.53;4.13;;;;;;;;;;5045874;28;20441;-82
2022/08/10 03:41:01;;;;;;;4.78;4.28;;;;;;;;;;5048990;28;20497;-82
2022/08/10 03:43:28;;;;;;;4.40;3.90;;;;;;;;;;5048028;28;20422;-82
2022/08/10 03:45:58;;;;;;;4.82;4.32;;;;;;;;;;5048274;28;20415;-81
2022/08/10 03:48:25;;;;;;;4.63;4.22;;;;;;;;;;5047779;28;20436;-81
2022/08/10 03:50:54;;;;;;;6.10;4.57;;;;;;;;;;5048867;28;20437;-84
2022/08/10 03:53:21;;;;;;;5.05;4.50;;;;;;;;;;5046469;28;20804;-81
2022/08/10 03:55:47;;;;;;;5.25;4.70;;;;;;;;;;5049479;28;20448;-81
2022/08/10 03:58:14;;;;;;;5.05;4.55;;;;;;;;;;5047442;28;21153;-82
2022/08/10 04:00:41;;;;;;;5.78;4.55;;;;;;;;;;5047227;28;20426;-83
2022/08/10 04:03:09;;;;;;;5.25;4.40;;;;;;;;;;5049099;28;20439;-80
2022/08/10 04:05:36;;;;;;;5.45;4.40;;;;;;;;;;5046349;28;20429;-82
2022/08/10 04:08:04;;;;;;;5.07;4.57;;;;;;;;;;5048399;28;20431;-81
2022/08/10 04:10:30;;;;;;;6.95;5.00;;;;;;;;;;5047142;28;20950;-83
2022/08/10 04:12:57;;;;;;;5.05;4.57;;;;;;;;;;5046377;28;20974;-81
2022/08/10 04:15:24;;;;;;;4.90;4.40;;;;;;;;;;5048138;28;20431;-81
2022/08/10 04:17:50;;;;;;;5.50;4.15;;;;;;;;;;5046481;28;20421;-81
2022/08/10 04:20:19;;;;;;;4.93;4.50;;;;;;;;;;5047879;28;20443;-81
2022/08/10 04:22:46;;;;;;;5.90;4.80;;;;;;;;;;5048018;28;20415;-81
2022/08/10 04:25:15;;;;;;;5.82;4.10;;;;;;;;;;5047751;28;20803;-81
2022/08/10 04:27:41;;;;;;;5.82;4.70;;;;;;;;;;5044971;28;20429;-81
2022/08/10 04:30:09;;;;;;;4.97;4.57;;;;;;;;;;5050170;28;20435;-83
2022/08/10 04:32:36;;;;;;;6.65;5.28;;;;;;;;;;5046062;28;20434;-81
2022/08/10 04:35:04;;;;;;;4.95;4.40;;;;;;;;;;5049554;28;20445;-83
2022/08/10 04:37:31;;;;;;;5.60;5.10;;;;;;;;;;5046107;28;20794;-83
2022/08/10 04:39:59;;;;;;;5.20;4.70;;;;;;;;;;5047978;28;20413;-82
2022/08/10 04:42:27;;;;;;;5.88;5.05;;;;;;;;;;5046626;28;20417;-83
2022/08/10 04:44:54;;;;;;;5.00;4.40;;;;;;;;;;5049031;28;20435;-82
2022/08/10 04:47:20;;;;;;;4.57;4.18;;;;;;;;;;5046825;28;20938;-82
2022/08/10 04:49:47;;;;;;;5.47;4.70;;;;;;;;;;5047465;28;21220;-83
2022/08/10 04:52:15;;;;;;;5.07;4.55;;;;;;;;;;5048122;28;20428;-84
2022/08/10 04:54:41;;;;;;;5.65;4.80;;;;;;;;;;5049815;28;20433;-83
2022/08/10 04:57:08;;;;;;;4.70;4.30;;;;;;;;;;5046092;28;20438;-80
2022/08/10 04:59:35;;;;;;;6.30;5.05;;;;;;;;;;5046463;28;20433;-81
2022/08/10 05:02:02;;;;;;;5.13;4.30;;;;;;;;;;5046314;28;20440;-82
2022/08/10 05:04:29;;;;;;;6.37;4.70;;;;;;;;;;5047532;28;20437;-81
2022/08/10 05:06:55;;;;;;;6.93;4.45;;;;;;;;;;5046458;28;20423;-82
2022/08/10 05:09:21;;;;;;;6.57;4.80;;;;;;;;;;5046260;28;20425;-80
2022/08/10 05:11:48;;;;;;;6.30;4.70;;;;;;;;;;5046667;28;20422;-80
2022/08/10 05:14:15;;;;;;;5.10;4.70;;;;;;;;;;5045697;28;20434;-81
2022/08/10 05:16:43;;;;;;;6.43;4.70;;;;;;;;;;5047807;28;20473;-80
2022/08/10 05:19:10;;;;;;;5.10;4.60;;;;;;;;;;5045678;28;20480;-80
2022/08/10 05:21:36;;;;;;;7.72;4.80;;;;;;;;;;5046225;28;20431;-80
2022/08/10 05:24:03;;;;;;;6.93;5.00;;;;;;;;;;5046964;28;20439;-80
2022/08/10 05:26:30;;;;;;;5.72;5.00;;;;;;;;;;5043478;28;20477;-80
2022/08/10 05:28:56;;;;;;;5.55;4.70;;;;;;;;;;5047586;28;20953;-79
2022/08/10 05:31:23;;;;;;;7.40;5.00;;;;;;;;;;5044782;28;20417;-79
2022/08/10 05:33:51;;;;;;;8.02;4.97;;;;;;;;;;5046599;28;20428;-81
2022/08/10 05:36:19;;;;;;;7.20;5.90;;;;;;;;;;5046740;28;20505;-80
2022/08/10 05:38:46;;;;;;;9.38;5.90;;;;;;;;;;5045738;28;20444;-82
2022/08/10 05:41:13;;;;;;;6.65;5.90;;;;;;;;;;5033166;28;20429;-81
2022/08/10 05:43:40;;;;;;;5.68;5.18;;;;;;;;;;5044715;28;20426;-81
2022/08/10 05:46:06;;;;;;;7.50;5.10;;;;;;;;;;5045977;28;20484;-82
2022/08/10 05:48:33;;;;;;;7.43;5.35;;;;;;;;;;5046230;28;20452;-81
2022/08/10 05:51:01;;;;;;;6.45;5.28;;;;;;;;;;5045853;28;20434;-80
2022/08/10 05:53:28;;;;;;;7.97;5.45;;;;;;;;;;5044329;28;20983;-81
2022/08/10 05:55:54;;;;;;;6.32;5.28;;;;;;;;;;5044088;28;20808;-81
2022/08/10 05:58:21;;;;;;;6.15;5.40;;;;;;;;;;5045295;28;20483;-81
2022/08/10 06:00:52;;;;;;;7.50;5.32;;;;;;;;;;5042935;28;20442;-80
2022/08/10 06:03:20;;;;;;;6.25;5.60;;;;;;;;;;5045402;28;20432;-80
2022/08/10 06:05:47;;;;;;;5.65;4.63;;;;;;;;;;5042549;28;20507;-79
2022/08/10 06:08:17;;;;;;;8.43;5.70;;;;;;;;;;5044799;28;20431;-82
2022/08/10 06:10:44;;;;;;;7.53;6.07;;;;;;;;;;5043904;28;20426;-80
2022/08/10 06:15:57;;;;;;;7.20;6.00;;;;;;;;;;5044084;28;20409;-80
2022/08/10 06:18:24;;;;;;;6.93;5.82;;;;;;;;;;5041276;28;20926;-80
2022/08/10 06:20:54;;;;;;;9.27;5.97;;;;;;;;;;5044162;28;20416;-80
2022/08/10 06:23:23;;;;;;;5.20;4.70;;;;;;;;;;5043826;28;20422;-81
2022/08/10 06:25:49;;;;;;;6.80;4.97;;;;;;;;;;5044533;28;20429;-80
2022/08/10 06:28:16;;;;;;;8.50;5.38;;;;;;;;;;5043451;28;20431;-81
2022/08/10 06:30:43;;;;;;;7.68;5.43;;;;;;;;;;5044471;28;20440;-80
2022/08/10 06:33:09;;;;;;;5.70;5.07;;;;;;;;;;5044508;28;20429;-82
2022/08/10 06:35:36;;;;;;;4.50;4.10;;;;;;;;;;5041211;28;20808;-82
2022/08/10 06:38:04;;;;;;;6.07;4.50;;;;;;;;;;5044068;28;20434;-82
2022/08/10 06:40:35;;;;;;;5.70;4.20;;;;;;;;;;5042664;28;20496;-82
2022/08/10 06:43:03;;;;;;;5.45;3.97;;;;;;;;;;5041256;28;20431;-81
2022/08/10 06:45:35;;;;;;;5.28;4.10;;;;;;;;;;5038715;28;20485;-81
2022/08/10 06:48:03;;;;;;;6.80;4.10;;;;;;;;;;5043620;28;21414;-81
2022/08/10 06:50:32;;;;;;;8.07;4.10;;;;;;;;;;5040343;28;20459;-81
2022/08/10 06:53:01;;;;;;;8.45;4.10;;;;;;;;;;5041872;28;20423;-79
2022/08/10 06:55:27;;;;;;;5.05;4.20;;;;;;;;;;5042012;28;20435;-81
2022/08/10 06:57:56;;;;;;;4.95;3.53;;;;;;;;;;5038607;28;20427;-81
2022/08/10 07:00:22;;;;;;;6.07;3.35;;;;;;;;;;5040974;28;20430;-81
2022/08/10 07:03:02;;;;;;;5.57;3.70;;;;;;;;;;5038949;28;20425;-81
2022/08/10 07:05:30;;;;;;;6.68;3.90;;;;;;;;;;5046142;28;20728;-80
2022/08/10 07:07:58;;;;;;;5.50;3.80;;;;;;;;;;5039935;28;20433;-81
2022/08/10 07:10:25;;;;;;;5.72;3.60;;;;;;;;;;5041345;28;20431;-80
2022/08/10 07:12:55;;;;;;;12.18;3.78;;;;;;;;;;5041726;28;20422;-80
2022/08/10 07:15:23;;;;;;;4.10;3.50;;;;;;;;;;5044534;28;20433;-81
2022/08/10 07:17:51;;;;;;;4.38;3.30;;;;;;;;;;5044783;28;20417;-82
2022/08/10 07:20:19;;;;;;;4.60;3.17;;;;;;;;;;5044971;28;20897;-80
2022/08/10 07:22:47;;;;;;;4.50;3.00;;;;;;;;;;5046183;28;20432;-81
2022/08/10 07:25:15;;;;;;;6.40;3.67;;;;;;;;;;5045672;28;20421;-81
2022/08/10 07:27:43;;;;;;;4.20;3.30;;;;;;;;;;5044318;28;20438;-81
2022/08/10 07:30:10;;;;;;;4.72;3.30;;;;;;;;;;5047032;28;20462;-82
2022/08/10 07:32:39;;;;;;;6.07;3.38;;;;;;;;;;5046524;28;20431;-82
2022/08/10 07:35:08;;;;;;;4.72;3.22;;;;;;;;;;5043660;28;20446;-80
2022/08/10 07:37:35;;;;;;;5.18;2.90;;;;;;;;;;5042764;28;20941;-80
2022/08/10 07:40:02;;;;;;;3.90;2.90;;;;;;;;;;5044281;28;20431;-80
2022/08/10 07:42:29;;;;;;;4.63;2.92;;;;;;;;;;5043859;28;20426;-80
2022/08/10 07:44:55;;;;;;;4.30;2.73;;;;;;;;;;5040608;28;20419;-80
2022/08/10 07:47:23;;;;;;;5.65;3.53;;;;;;;;;;5043950;28;20421;-81
2022/08/10 07:49:52;;;;;;;3.22;2.80;;;;;;;;;;5041867;28;20440;-81
2022/08/10 07:52:19;;;;;;;5.05;3.15;;;;;;;;;;5044182;28;20433;-81
2022/08/10 07:54:47;;;;;;;9.60;3.60;;;;;;;;;;5046229;28;20438;-80
2022/08/10 07:57:18;;;;;;;5.35;3.08;;;;;;;;;;5043993;28;20433;-80
2022/08/10 07:59:46;;;;;;;5.25;2.65;;;;;;;;;;5045212;28;20919;-81
2022/08/10 08:02:17;;;;;;;3.20;2.90;;;;;;;;;;5042944;28;20846;-81
2022/08/10 08:04:44;;;;;;;5.30;2.90;;;;;;;;;;5044192;28;20431;-80
2022/08/10 08:07:16;;;;;;;4.85;3.33;;;;;;;;;;5043750;28;20448;-82
2022/08/10 08:09:43;;;;;;;4.70;3.10;;;;;;;;;;5045014;28;20413;-81
2022/08/10 08:12:10;;;;;;;5.32;2.80;;;;;;;;;;5045525;28;20419;-81
2022/08/10 08:14:38;;;;;;;4.38;3.08;;;;;;;;;;5043414;28;20425;-81
2022/08/10 08:17:06;;;;;;;4.63;2.80;;;;;;;;;;5044227;28;20434;-81
2022/08/10 08:19:33;;;;;;;4.70;3.20;;;;;;;;;;5044782;28;20935;-80
2022/08/10 08:22:00;;;;;;;3.80;3.08;;;;;;;;;;5045971;28;20430;-81
2022/08/10 08:24:28;;;;;;;4.07;3.00;;;;;;;;;;5045342;28;20461;-81
2022/08/10 08:26:55;;;;;;;7.35;3.17;;;;;;;;;;5042245;28;20433;-79
2022/08/10 08:29:22;;;;;;;6.45;3.00;;;;;;;;;;5043340;28;20433;-80
2022/08/10 08:31:49;;;;;;;4.80;3.03;;;;;;;;;;5042933;28;20429;-81
2022/08/10 08:34:17;;;;;;;3.63;3.15;;;;;;;;;;5043629;28;20421;-81
2022/08/10 08:36:44;;;;;;;3.78;3.35;;;;;;;;;;5042328;28;20425;-81
2022/08/10 08:39:10;;;;;;;4.47;3.30;;;;;;;;;;5043835;28;20417;-81
2022/08/10 08:41:53;;;;;;;5.90;3.50;;;;;;;;;;5041726;28;20459;-81
2022/08/10 08:44:23;;;;;;;4.57;2.92;;;;;;;;;;5043100;28;20431;-81
2022/08/10 08:47:05;;;;;;;4.35;3.05;;;;;;;;;;5042874;28;20433;-81
2022/08/10 08:49:40;;;;;;;4.32;2.90;;;;;;;;;;5039844;28;20822;-80
2022/08/10 08:52:13;;;;;;;5.90;3.15;;;;;;;;;;5042395;28;20431;-80
2022/08/10 08:54:48;;;;;;;3.80;3.25;;;;;;;;;;5044455;28;20429;-80
2022/08/10 08:57:22;;;;;;;6.50;3.13;;;;;;;;;;5041834;28;20425;-80
2022/08/10 08:59:55;;;;;;;4.85;3.00;;;;;;;;;;5043154;28;20437;-82
2022/08/10 09:02:31;;;;;;;3.10;2.80;;;;;;;;;;5045053;28;20429;-81
2022/08/10 09:05:07;;;;;;;5.07;2.92;;;;;;;;;;5042131;28;20422;-80
2022/08/10 09:07:54;;;;;;;5.90;3.00;;;;;;;;;;5045795;28;20429;-83
2022/08/10 09:10:24;;;;;;;4.68;3.10;;;;;;;;;;5008892;28;20429;-80
2022/08/10 09:12:54;;;;;;;3.72;3.10;;;;;;;;;;5042726;28;20429;-81
2022/08/10 09:15:26;;;;;;;4.78;2.78;;;;;;;;;;5044866;28;20428;-81
2022/08/10 09:17:55;;;;;;;3.10;2.80;;;;;;;;;;5042650;28;21045;-80
2022/08/10 09:20:26;;;;;;;4.03;2.83;;;;;;;;;;5042239;28;20425;-81
2022/08/10 09:22:55;;;;;;;4.57;3.40;;;;;;;;;;5042501;28;20798;-82
2022/08/10 09:25:23;;;;;;;4.88;2.80;;;;;;;;;;5043170;28;20415;-79
2022/08/10 09:27:52;;;;;;;5.72;3.00;;;;;;;;;;5041546;28;21358;-80
2022/08/10 09:30:25;;;;;;;3.92;3.00;;;;;;;;;;5042718;28;20890;-80
2022/08/10 09:32:57;;;;;;;6.85;3.38;;;;;;;;;;5041780;28;20430;-81
2022/08/10 09:35:27;;;;;;;3.20;2.72;;;;;;;;;;5042855;28;20448;-81
2022/08/10 09:38:00;;;;;;;3.90;2.80;;;;;;;;;;5041795;28;20518;-80
2022/08/10 09:40:29;;;;;;;3.20;2.83;;;;;;;;;;5041039;28;20437;-80
2022/08/10 09:43:00;;;;;;;4.85;2.60;;;;;;;;;;5038031;28;20426;-80
2022/08/10 09:45:31;;;;;;;3.97;2.90;;;;;;;;;;5043111;28;20811;-82
2022/08/10 09:48:00;;;;;;;2.92;2.30;;;;;;;;;;5042116;28;20421;-82
2022/08/10 09:50:33;;;;;;;2.60;2.40;;;;;;;;;;5043476;28;20441;-79
2022/08/10 09:53:05;;;;;;;4.43;2.83;;;;;;;;;;5043031;28;20512;-83
2022/08/10 09:55:35;;;;;;;3.90;2.40;;;;;;;;;;5041687;28;20487;-83
2022/08/10 09:58:10;;;;;;;3.60;2.50;;;;;;;;;;5042745;28;21139;-82
2022/08/10 10:00:40;;;;;;;3.20;2.85;;;;;;;;;;5042116;28;20458;-81
2022/08/10 10:03:13;;;;;;;4.25;2.80;;;;;;;;;;5042576;28;20435;-81
2022/08/10 10:05:45;;;;;;;2.90;2.30;;;;;;;;;;5039638;28;20432;-81
2022/08/10 10:08:16;;;;;;;6.30;2.78;;;;;;;;;;5043443;28;20441;-81
2022/08/10 10:10:49;;;;;;;3.28;2.80;;;;;;;;;;5040170;28;20428;-80
2022/08/10 10:13:19;;;;;;;4.15;2.17;;;;;;;;;;5038518;28;20431;-81
2022/08/10 10:15:52;;;;;;;3.92;2.40;;;;;;;;;;5041424;28;20437;-80
2022/08/10 10:18:23;;;;;;;4.28;2.60;;;;;;;;;;5041226;28;20818;-81
2022/08/10 10:20:54;;;;;;;4.72;3.00;;;;;;;;;;5039664;28;20426;-81
2022/08/10 10:23:27;;;;;;;3.03;2.60;;;;;;;;;;5043360;28;21190;-80
2022/08/10 10:25:56;;;;;;;4.40;2.50;;;;;;;;;;5040966;28;20417;-80
2022/08/10 10:28:35;;;;;;;5.70;2.85;;;;;;;;;;5041950;28;20439;-80
2022/08/10 10:31:06;;;;;;;4.30;2.60;;;;;;;;;;5038089;28;20429;-81
2022/08/10 10:33:37;;;;;;;3.50;2.58;;;;;;;;;;5041627;28;20430;-81
2022/08/10 10:36:05;;;;;;;2.50;2.30;;;;;;;;;;5039341;28;20779;-81
2022/08/10 10:38:34;;;;;;;2.95;2.50;;;;;;;;;;5042658;28;20473;-80
2022/08/10 10:41:03;;;;;;;4.15;2.17;;;;;;;;;;5041152;28;20409;-80
2022/08/10 10:43:36;;;;;;;3.60;2.30;;;;;;;;;;5042785;28;20795;-81
2022/08/10 10:46:12;;;;;;;4.68;2.30;;;;;;;;;;5042364;28;20425;-82
2022/08/10 10:48:43;;;;;;;3.13;2.60;;;;;;;;;;5045219;28;20431;-81
2022/08/10 10:51:12;;;;;;;3.17;2.37;;;;;;;;;;5045097;28;20431;-81
2022/08/10 10:53:44;;;;;;;3.53;2.53;;;;;;;;;;5047339;28;20429;-82
2022/08/10 10:56:18;;;;;;;2.10;1.90;;;;;;;;;;5045876;28;20418;-83
2022/08/10 10:58:49;;;;;;;2.45;2.00;;;;;;;;;;5045645;28;20451;-83
2022/08/10 11:01:24;;;;;;;2.05;1.83;;;;;;;;;;5048360;28;20505;-83
2022/08/10 11:03:58;;;;;;;3.65;2.20;;;;;;;;;;5045029;28;20433;-82
2022/08/10 11:06:40;;;;;;;2.30;2.10;;;;;;;;;;5043144;28;20414;-80
2022/08/10 11:09:11;;;;;;;2.65;2.00;;;;;;;;;;5043689;28;20437;-80
2022/08/10 11:11:39;;;;;;;2.38;2.17;;;;;;;;;;5044480;28;20923;-81
2022/08/10 11:14:11;;;;;;;3.40;2.30;;;;;;;;;;5043658;28;21033;-80
2022/08/10 11:16:46;;;;;;;3.00;2.22;;;;;;;;;;5046867;28;20427;-82
2022/08/10 11:19:16;;;;;;;5.20;1.90;;;;;;;;;;5044592;28;21209;-79
2022/08/10 11:21:50;;;;;;;3.05;2.00;;;;;;;;;;5044014;28;20428;-81
2022/08/10 11:24:20;;;;;;;3.08;1.92;;;;;;;;;;5046014;28;20476;-80
2022/08/10 11:26:47;;;;;;;2.60;2.10;;;;;;;;;;5042294;28;20515;-81
2022/08/10 11:29:18;;;;;;;2.20;1.93;;;;;;;;;;5043531;28;20430;-81
2022/08/10 11:31:50;;;;;;;3.20;2.40;;;;;;;;;;5044497;28;20419;-80
2022/08/10 11:34:20;;;;;;;3.92;2.67;;;;;;;;;;5044063;28;20448;-80
2022/08/10 11:36:49;;;;;;;3.00;2.05;;;;;;;;;;5046186;28;20425;-80
2022/08/10 11:39:18;;;;;;;3.53;2.50;;;;;;;;;;5042937;28;20433;-80
2022/08/10 11:41:49;;;;;;;3.03;2.47;;;;;;;;;;5044936;28;20421;-82
2022/08/10 11:44:21;;;;;;;3.50;2.22;;;;;;;;;;5045279;28;20436;-82
2022/08/10 11:46:53;;;;;;;4.35;2.55;;;;;;;;;;5045870;28;20425;-81
2022/08/10 11:49:27;;;;;;;2.88;2.20;;;;;;;;;;5044673;28;20470;-80
2022/08/10 11:51:55;;;;;;;3.42;2.10;;;;;;;;;;5046393;28;21006;-80
2022/08/10 11:54:25;;;;;;;2.60;2.40;;;;;;;;;;5045154;28;20456;-82
2022/08/10 11:56:52;;;;;;;3.65;2.85;;;;;;;;;;5042960;28;20465;-80
2022/08/10 12:02:06;;;;;;;2.53;2.20;;;;;;;;;;5043369;28;20426;-82
2022/08/10 12:04:33;;;;;;;6.13;2.40;;;;;;;;;;5044093;28;20432;-82
2022/08/10 12:07:03;;;;;;;5.00;2.40;;;;;;;;;;5043806;28;20513;-82
2022/08/10 12:09:30;;;;;;;3.50;2.20;;;;;;;;;;5039978;28;20971;-80
2022/08/10 12:11:58;;;;;;;3.90;2.20;;;;;;;;;;5044471;28;20434;-80
2022/08/10 12:14:28;;;;;;;2.78;2.38;;;;;;;;;;5044641;28;20428;-81
2022/08/10 12:16:56;;;;;;;3.50;2.30;;;;;;;;;;5042838;28;20429;-80
2022/08/10 12:19:27;;;;;;;3.42;2.60;;;;;;;;;;5042027;28;20822;-81
2022/08/10 12:21:57;;;;;;;3.08;2.30;;;;;;;;;;5044959;28;20429;-80
2022/08/10 12:24:25;;;;;;;2.33;2.13;;;;;;;;;;5044770;28;20442;-80
2022/08/10 12:26:55;;;;;;;3.17;2.03;;;;;;;;;;5041770;28;20756;-80
2022/08/10 12:29:26;;;;;;;3.33;2.17;;;;;;;;;;5042827;28;20424;-80
2022/08/10 12:31:57;;;;;;;3.50;2.20;;;;;;;;;;5043785;28;20417;-80
2022/08/10 12:34:29;;;;;;;4.60;2.28;;;;;;;;;;5044017;28;20521;-81
2022/08/10 12:37:00;;;;;;;2.60;2.40;;;;;;;;;;5042980;28;20425;-82
2022/08/10 12:39:27;;;;;;;3.33;2.55;;;;;;;;;;5043438;28;20503;-80
2022/08/10 12:41:58;;;;;;;2.85;2.00;;;;;;;;;;5044309;28;20415;-79
2022/08/10 12:44:28;;;;;;;3.60;2.40;;;;;;;;;;5043676;28;20418;-81
2022/08/10 12:46:58;;;;;;;3.17;2.17;;;;;;;;;;5042385;28;20431;-81
2022/08/10 12:49:30;;;;;;;3.05;2.40;;;;;;;;;;5042089;28;21806;-80
2022/08/10 12:52:11;;;;;;;3.90;2.10;;;;;;;;;;5041766;28;20429;-79
2022/08/10 12:54:40;;;;;;;3.80;2.50;;;;;;;;;;5041632;28;20802;-80
2022/08/10 12:57:09;;;;;;;2.40;2.10;;;;;;;;;;5043098;28;20430;-81
2022/08/10 12:59:36;;;;;;;3.08;2.30;;;;;;;;;;5043164;28;20996;-82
2022/08/10 13:02:04;;;;;;;1.90;1.80;;;;;;;;;;5042406;28;20434;-79
2022/08/10 13:04:34;;;;;;;3.33;2.05;;;;;;;;;;5043341;28;20438;-81
2022/08/10 13:07:02;;;;;;;4.90;2.40;;;;;;;;;;5042531;28;20932;-81
2022/08/10 13:09:28;;;;;;;2.60;2.00;;;;;;;;;;5042489;28;20434;-81
2022/08/10 13:11:58;;;;;;;2.25;2.00;;;;;;;;;;5041947;28;20427;-80
2022/08/10 13:14:28;;;;;;;2.55;2.30;;;;;;;;;;5041402;28;21022;-81
2022/08/10 13:16:57;;;;;;;3.20;2.00;;;;;;;;;;5041645;28;21043;-81
2022/08/10 13:19:24;;;;;;;2.30;2.10;;;;;;;;;;5042953;28;20443;-83
2022/08/10 13:21:52;;;;;;;2.43;2.13;;;;;;;;;;5043209;28;20430;-82
2022/08/10 13:24:23;;;;;;;4.10;2.33;;;;;;;;;;5044035;28;20438;-82
2022/08/10 13:26:51;;;;;;;2.60;2.30;;;;;;;;;;5040007;28;20941;-81
2022/08/10 13:29:19;;;;;;;3.30;2.60;;;;;;;;;;5042691;28;20437;-82
2022/08/10 13:31:47;;;;;;;3.10;2.25;;;;;;;;;;5043925;28;20426;-81
2022/08/10 13:34:20;;;;;;;3.28;2.30;;;;;;;;;;5042321;28;20433;-82
2022/08/10 13:36:48;;;;;;;2.93;2.30;;;;;;;;;;5042494;28;20421;-82
2022/08/10 13:39:17;;;;;;;2.72;2.30;;;;;;;;;;5043556;28;20442;-80
2022/08/10 13:41:44;;;;;;;3.63;2.10;;;;;;;;;;5038597;28;20430;-80
2022/08/10 13:44:14;;;;;;;5.40;2.20;;;;;;;;;;5041563;28;20482;-80
2022/08/10 13:46:41;;;;;;;2.58;2.10;;;;;;;;;;5041289;28;20475;-80
2022/08/10 13:49:09;;;;;;;2.40;2.20;;;;;;;;;;5041572;28;20521;-79
2022/08/10 13:51:38;;;;;;;3.47;2.28;;;;;;;;;;5039183;28;20430;-79
2022/08/10 13:54:05;;;;;;;3.72;2.45;;;;;;;;;;5044325;28;20914;-80
2022/08/10 13:56:34;;;;;;;5.70;2.58;;;;;;;;;;5042523;28;20433;-79
2022/08/10 13:59:01;;;;;;;3.40;2.20;;;;;;;;;;5043837;28;20446;-83
2022/08/10 14:01:31;;;;;;;3.42;2.13;;;;;;;;;;5040251;28;20419;-81
2022/08/10 14:03:57;;;;;;;4.07;2.25;;;;;;;;;;5041443;28;20427;-82
2022/08/10 14:06:26;;;;;;;4.70;2.42;;;;;;;;;;5042592;28;20425;-82
2022/08/10 14:08:54;;;;;;;4.18;2.47;;;;;;;;;;5042305;28;20460;-81
2022/08/10 14:11:21;;;;;;;2.83;2.28;;;;;;;;;;5041341;28;20430;-83
2022/08/10 14:13:52;;;;;;;6.07;2.50;;;;;;;;;;5041146;28;20429;-81
2022/08/10 14:16:19;;;;;;;2.83;2.08;;;;;;;;;;5043586;28;20413;-81
2022/08/10 14:18:47;;;;;;;3.50;2.10;;;;;;;;;;5043167;28;20433;-81
2022/08/10 14:21:14;;;;;;;4.43;2.50;;;;;;;;;;5040966;28;20926;-81
2022/08/10 14:23:41;;;;;;;2.33;2.10;;;;;;;;;;5043235;28;20439;-81
2022/08/10 14:26:09;;;;;;;2.80;2.00;;;;;;;;;;5041699;28;20419;-81
2022/08/10 14:28:39;;;;;;;3.53;2.40;;;;;;;;;;5041712;28;20438;-81
2022/08/10 14:31:09;;;;;;;2.78;2.30;;;;;;;;;;5042820;28;20518;-80
2022/08/10 14:33:36;;;;;;;2.90;1.95;;;;;;;;;;5043039;28;20443;-83
2022/08/10 14:36:03;;;;;;;2.05;1.85;;;;;;;;;;5040515;28;20425;-79
2022/08/10 14:38:31;;;;;;;3.97;2.35;;;;;;;;;;5042966;28;20444;-80
2022/08/10 14:40:59;;;;;;;5.07;2.10;;;;;;;;;;5031409;28;20434;-80
2022/08/10 14:43:27;;;;;;;2.55;2.10;;;;;;;;;;5039923;28;20431;-81
2022/08/10 14:45:58;;;;;;;2.63;2.15;;;;;;;;;;5041611;28;20431;-80
2022/08/10 14:48:27;;;;;;;2.95;2.05;;;;;;;;;;5042389;28;20439;-81
2022/08/10 14:50:54;;;;;;;2.53;2.20;;;;;;;;;;5038550;28;20442;-81
2022/08/10 14:53:23;;;;;;;4.68;2.33;;;;;;;;;;5039340;28;21341;-81
2022/08/10 14:55:50;;;;;;;4.68;2.58;;;;;;;;;;5040892;28;20433;-80
2022/08/10 14:58:19;;;;;;;2.78;2.20;;;;;;;;;;5041311;28;20432;-81
2022/08/10 15:00:46;;;;;;;3.23;2.17;;;;;;;;;;5040654;28;20441;-81